<?xml version="1.0" encoding="UTF-8" standalone="no" ?>
<gpx xmlns="http://www.topografix.com/GPX/1/1" xmlns:xsi="http://www.w3.org/2001/XMLSchema-instance" xsi:schemaLocation="http://www.topografix.com/GPX/1/1 http://www.topografix.com/GPX/1/1/gpx.xsd" version="1.1" creator="VisuGPX - https://www.visugpx.com">
  <metadata>
    <name>Reze_Autour_8-19km</name>
    <desc><![CDATA[gnerando idor:5792578_5792726_5814453_5825877_6470772_8005623_8320604_9624624__]]></desc>
  </metadata>
  <trk>
    <name><![CDATA[Reze_CroixMedardPontRousseau_10km-5792578]]></name>
    <extensions>
      <line xmlns="http://www.topografix.com/GPX/gpx_style/0/2">
        <color>008888</color>
        <width>4</width>
      </line>
    </extensions>
    <trkseg>
      <trkpt lat="47.18767" lon="-1.57414">
        <ele>9</ele>
        <time>2023-11-11T18:51:39Z</time>
      </trkpt>
      <trkpt lat="47.18752" lon="-1.57422">
        <ele>9</ele>
        <time>2023-11-11T18:52:00Z</time>
      </trkpt>
      <trkpt lat="47.18748" lon="-1.57417">
        <ele>9</ele>
        <time>2023-11-11T18:52:07Z</time>
      </trkpt>
      <trkpt lat="47.18725" lon="-1.57418">
        <ele>10</ele>
        <time>2023-11-11T18:52:38Z</time>
      </trkpt>
      <trkpt lat="47.18676" lon="-1.57407">
        <ele>11</ele>
        <time>2023-11-11T18:53:44Z</time>
      </trkpt>
      <trkpt lat="47.18668" lon="-1.57396">
        <ele>12</ele>
        <time>2023-11-11T18:53:59Z</time>
      </trkpt>
      <trkpt lat="47.18662" lon="-1.5738">
        <ele>12</ele>
        <time>2023-11-11T18:54:15Z</time>
      </trkpt>
      <trkpt lat="47.18648" lon="-1.57369">
        <ele>13</ele>
        <time>2023-11-11T18:54:37Z</time>
      </trkpt>
      <trkpt lat="47.18604" lon="-1.57373">
        <ele>13</ele>
        <time>2023-11-11T18:55:35Z</time>
      </trkpt>
      <trkpt lat="47.18597" lon="-1.57372">
        <ele>13</ele>
        <time>2023-11-11T18:55:45Z</time>
      </trkpt>
      <trkpt lat="47.18588" lon="-1.57367">
        <ele>14</ele>
        <time>2023-11-11T18:55:58Z</time>
      </trkpt>
      <trkpt lat="47.18567" lon="-1.57368">
        <ele>14</ele>
        <time>2023-11-11T18:56:26Z</time>
      </trkpt>
      <trkpt lat="47.18561" lon="-1.57363">
        <ele>14</ele>
        <time>2023-11-11T18:56:35Z</time>
      </trkpt>
      <trkpt lat="47.18546" lon="-1.57364">
        <ele>15</ele>
        <time>2023-11-11T18:56:55Z</time>
      </trkpt>
      <trkpt lat="47.1851" lon="-1.5737">
        <ele>16</ele>
        <time>2023-11-11T18:57:43Z</time>
      </trkpt>
      <trkpt lat="47.18497" lon="-1.5739">
        <ele>16</ele>
        <time>2023-11-11T18:58:08Z</time>
      </trkpt>
      <trkpt lat="47.1849" lon="-1.57414">
        <ele>15</ele>
        <time>2023-11-11T18:58:32Z</time>
      </trkpt>
      <trkpt lat="47.18482" lon="-1.57418">
        <ele>15</ele>
        <time>2023-11-11T18:58:43Z</time>
      </trkpt>
      <trkpt lat="47.18464" lon="-1.57416">
        <ele>16</ele>
        <time>2023-11-11T18:59:07Z</time>
      </trkpt>
      <trkpt lat="47.18448" lon="-1.57403">
        <ele>17</ele>
        <time>2023-11-11T18:59:32Z</time>
      </trkpt>
      <trkpt lat="47.18441" lon="-1.57393">
        <ele>17</ele>
        <time>2023-11-11T18:59:45Z</time>
      </trkpt>
      <trkpt lat="47.18392" lon="-1.57418">
        <ele>17</ele>
        <time>2023-11-11T19:00:54Z</time>
      </trkpt>
      <trkpt lat="47.18372" lon="-1.5742">
        <ele>18</ele>
        <time>2023-11-11T19:01:21Z</time>
      </trkpt>
      <trkpt lat="47.18341" lon="-1.57432">
        <ele>18</ele>
        <time>2023-11-11T19:02:03Z</time>
      </trkpt>
      <trkpt lat="47.1833" lon="-1.5743">
        <ele>18</ele>
        <time>2023-11-11T19:02:18Z</time>
      </trkpt>
      <trkpt lat="47.18302" lon="-1.57437">
        <ele>18</ele>
        <time>2023-11-11T19:02:56Z</time>
      </trkpt>
      <trkpt lat="47.18291" lon="-1.57442">
        <ele>18</ele>
        <time>2023-11-11T19:03:12Z</time>
      </trkpt>
      <trkpt lat="47.18273" lon="-1.57457">
        <ele>19</ele>
        <time>2023-11-11T19:03:39Z</time>
      </trkpt>
      <trkpt lat="47.18251" lon="-1.57437">
        <ele>18</ele>
        <time>2023-11-11T19:04:14Z</time>
      </trkpt>
      <trkpt lat="47.1825" lon="-1.57427">
        <ele>18</ele>
        <time>2023-11-11T19:04:23Z</time>
      </trkpt>
      <trkpt lat="47.18237" lon="-1.57418">
        <ele>18</ele>
        <time>2023-11-11T19:04:42Z</time>
      </trkpt>
      <trkpt lat="47.18219" lon="-1.57398">
        <ele>19</ele>
        <time>2023-11-11T19:05:12Z</time>
      </trkpt>
      <trkpt lat="47.18216" lon="-1.5739">
        <ele>19</ele>
        <time>2023-11-11T19:05:20Z</time>
      </trkpt>
      <trkpt lat="47.18218" lon="-1.57371">
        <ele>19</ele>
        <time>2023-11-11T19:05:38Z</time>
      </trkpt>
      <trkpt lat="47.18216" lon="-1.57353">
        <ele>19</ele>
        <time>2023-11-11T19:05:54Z</time>
      </trkpt>
      <trkpt lat="47.18205" lon="-1.57336">
        <ele>19</ele>
        <time>2023-11-11T19:06:16Z</time>
      </trkpt>
      <trkpt lat="47.18204" lon="-1.57301">
        <ele>21</ele>
        <time>2023-11-11T19:06:47Z</time>
      </trkpt>
      <trkpt lat="47.18209" lon="-1.57239">
        <ele>23</ele>
        <time>2023-11-11T19:07:44Z</time>
      </trkpt>
      <trkpt lat="47.18208" lon="-1.5722">
        <ele>23</ele>
        <time>2023-11-11T19:08:01Z</time>
      </trkpt>
      <trkpt lat="47.1821" lon="-1.57211">
        <ele>23</ele>
        <time>2023-11-11T19:08:10Z</time>
      </trkpt>
      <trkpt lat="47.18224" lon="-1.57214">
        <ele>23</ele>
        <time>2023-11-11T19:08:29Z</time>
      </trkpt>
      <trkpt lat="47.18246" lon="-1.57214">
        <ele>24</ele>
        <time>2023-11-11T19:08:58Z</time>
      </trkpt>
      <trkpt lat="47.18265" lon="-1.57211">
        <ele>23</ele>
        <time>2023-11-11T19:09:24Z</time>
      </trkpt>
      <trkpt lat="47.18266" lon="-1.57204">
        <ele>23</ele>
        <time>2023-11-11T19:09:30Z</time>
      </trkpt>
      <trkpt lat="47.18273" lon="-1.57194">
        <ele>23</ele>
        <time>2023-11-11T19:09:43Z</time>
      </trkpt>
      <trkpt lat="47.18293" lon="-1.57088">
        <ele>24</ele>
        <time>2023-11-11T19:11:23Z</time>
      </trkpt>
      <trkpt lat="47.18307" lon="-1.56992">
        <ele>24</ele>
        <time>2023-11-11T19:12:52Z</time>
      </trkpt>
      <trkpt lat="47.18318" lon="-1.56941">
        <ele>25</ele>
        <time>2023-11-11T19:13:41Z</time>
      </trkpt>
      <trkpt lat="47.18324" lon="-1.56934">
        <ele>25</ele>
        <time>2023-11-11T19:13:51Z</time>
      </trkpt>
      <trkpt lat="47.18327" lon="-1.56924">
        <ele>25</ele>
        <time>2023-11-11T19:14:01Z</time>
      </trkpt>
      <trkpt lat="47.18333" lon="-1.56869">
        <ele>24</ele>
        <time>2023-11-11T19:14:51Z</time>
      </trkpt>
      <trkpt lat="47.18343" lon="-1.56827">
        <ele>24</ele>
        <time>2023-11-11T19:15:32Z</time>
      </trkpt>
      <trkpt lat="47.18346" lon="-1.56798">
        <ele>23</ele>
        <time>2023-11-11T19:15:58Z</time>
      </trkpt>
      <trkpt lat="47.18341" lon="-1.56774">
        <ele>23</ele>
        <time>2023-11-11T19:16:21Z</time>
      </trkpt>
      <trkpt lat="47.18328" lon="-1.56753">
        <ele>23</ele>
        <time>2023-11-11T19:16:47Z</time>
      </trkpt>
      <trkpt lat="47.1828" lon="-1.56702">
        <ele>24</ele>
        <time>2023-11-11T19:18:06Z</time>
      </trkpt>
      <trkpt lat="47.18273" lon="-1.56699">
        <ele>25</ele>
        <time>2023-11-11T19:18:15Z</time>
      </trkpt>
      <trkpt lat="47.18238" lon="-1.56669">
        <ele>25</ele>
        <time>2023-11-11T19:19:09Z</time>
      </trkpt>
      <trkpt lat="47.18233" lon="-1.56719">
        <ele>25</ele>
        <time>2023-11-11T19:19:55Z</time>
      </trkpt>
      <trkpt lat="47.18227" lon="-1.56734">
        <ele>25</ele>
        <time>2023-11-11T19:20:11Z</time>
      </trkpt>
      <trkpt lat="47.1822" lon="-1.56737">
        <ele>25</ele>
        <time>2023-11-11T19:20:21Z</time>
      </trkpt>
      <trkpt lat="47.18183" lon="-1.56742">
        <ele>24</ele>
        <time>2023-11-11T19:21:10Z</time>
      </trkpt>
      <trkpt lat="47.18173" lon="-1.56751">
        <ele>24</ele>
        <time>2023-11-11T19:21:26Z</time>
      </trkpt>
      <trkpt lat="47.18162" lon="-1.56877">
        <ele>23</ele>
        <time>2023-11-11T19:23:21Z</time>
      </trkpt>
      <trkpt lat="47.1815" lon="-1.56875">
        <ele>24</ele>
        <time>2023-11-11T19:23:37Z</time>
      </trkpt>
      <trkpt lat="47.18138" lon="-1.56881">
        <ele>24</ele>
        <time>2023-11-11T19:23:54Z</time>
      </trkpt>
      <trkpt lat="47.18133" lon="-1.56886">
        <ele>24</ele>
        <time>2023-11-11T19:24:02Z</time>
      </trkpt>
      <trkpt lat="47.18126" lon="-1.56901">
        <ele>24</ele>
        <time>2023-11-11T19:24:19Z</time>
      </trkpt>
      <trkpt lat="47.18115" lon="-1.56945">
        <ele>24</ele>
        <time>2023-11-11T19:25:01Z</time>
      </trkpt>
      <trkpt lat="47.18116" lon="-1.56975">
        <ele>24</ele>
        <time>2023-11-11T19:25:29Z</time>
      </trkpt>
      <trkpt lat="47.1811" lon="-1.57">
        <ele>24</ele>
        <time>2023-11-11T19:25:53Z</time>
      </trkpt>
      <trkpt lat="47.18071" lon="-1.57">
        <ele>25</ele>
        <time>2023-11-11T19:26:45Z</time>
      </trkpt>
      <trkpt lat="47.18024" lon="-1.56992">
        <ele>24</ele>
        <time>2023-11-11T19:27:48Z</time>
      </trkpt>
      <trkpt lat="47.18019" lon="-1.56987">
        <ele>23</ele>
        <time>2023-11-11T19:27:56Z</time>
      </trkpt>
      <trkpt lat="47.18017" lon="-1.56976">
        <ele>23</ele>
        <time>2023-11-11T19:28:06Z</time>
      </trkpt>
      <trkpt lat="47.1802" lon="-1.56933">
        <ele>23</ele>
        <time>2023-11-11T19:28:45Z</time>
      </trkpt>
      <trkpt lat="47.17923" lon="-1.56916">
        <ele>26</ele>
        <time>2023-11-11T19:30:56Z</time>
      </trkpt>
      <trkpt lat="47.17917" lon="-1.56912">
        <ele>26</ele>
        <time>2023-11-11T19:31:05Z</time>
      </trkpt>
      <trkpt lat="47.17911" lon="-1.56899">
        <ele>26</ele>
        <time>2023-11-11T19:31:19Z</time>
      </trkpt>
      <trkpt lat="47.17902" lon="-1.56894">
        <ele>26</ele>
        <time>2023-11-11T19:31:32Z</time>
      </trkpt>
      <trkpt lat="47.17905" lon="-1.56884">
        <ele>26</ele>
        <time>2023-11-11T19:31:42Z</time>
      </trkpt>
      <trkpt lat="47.1791" lon="-1.56803">
        <ele>26</ele>
        <time>2023-11-11T19:32:55Z</time>
      </trkpt>
      <trkpt lat="47.17913" lon="-1.56785">
        <ele>27</ele>
        <time>2023-11-11T19:33:12Z</time>
      </trkpt>
      <trkpt lat="47.17917" lon="-1.56778">
        <ele>27</ele>
        <time>2023-11-11T19:33:21Z</time>
      </trkpt>
      <trkpt lat="47.17927" lon="-1.56767">
        <ele>27</ele>
        <time>2023-11-11T19:33:37Z</time>
      </trkpt>
      <trkpt lat="47.1796" lon="-1.5675">
        <ele>27</ele>
        <time>2023-11-11T19:34:24Z</time>
      </trkpt>
      <trkpt lat="47.18001" lon="-1.56733">
        <ele>27</ele>
        <time>2023-11-11T19:35:21Z</time>
      </trkpt>
      <trkpt lat="47.18014" lon="-1.56721">
        <ele>27</ele>
        <time>2023-11-11T19:35:41Z</time>
      </trkpt>
      <trkpt lat="47.18028" lon="-1.56701">
        <ele>28</ele>
        <time>2023-11-11T19:36:07Z</time>
      </trkpt>
      <trkpt lat="47.18047" lon="-1.56642">
        <ele>28</ele>
        <time>2023-11-11T19:37:06Z</time>
      </trkpt>
      <trkpt lat="47.1805" lon="-1.56641">
        <ele>28</ele>
        <time>2023-11-11T19:37:11Z</time>
      </trkpt>
      <trkpt lat="47.18057" lon="-1.56646">
        <ele>28</ele>
        <time>2023-11-11T19:37:21Z</time>
      </trkpt>
      <trkpt lat="47.18081" lon="-1.56672">
        <ele>28</ele>
        <time>2023-11-11T19:38:01Z</time>
      </trkpt>
      <trkpt lat="47.18085" lon="-1.56672">
        <ele>28</ele>
        <time>2023-11-11T19:38:06Z</time>
      </trkpt>
      <trkpt lat="47.18099" lon="-1.56654">
        <ele>27</ele>
        <time>2023-11-11T19:38:31Z</time>
      </trkpt>
      <trkpt lat="47.18107" lon="-1.56658">
        <ele>27</ele>
        <time>2023-11-11T19:38:42Z</time>
      </trkpt>
      <trkpt lat="47.18116" lon="-1.56672">
        <ele>27</ele>
        <time>2023-11-11T19:39:00Z</time>
      </trkpt>
      <trkpt lat="47.18136" lon="-1.56688">
        <ele>26</ele>
        <time>2023-11-11T19:39:30Z</time>
      </trkpt>
      <trkpt lat="47.18159" lon="-1.56634">
        <ele>26</ele>
        <time>2023-11-11T19:40:28Z</time>
      </trkpt>
      <trkpt lat="47.18174" lon="-1.56605">
        <ele>26</ele>
        <time>2023-11-11T19:41:01Z</time>
      </trkpt>
      <trkpt lat="47.18194" lon="-1.56546">
        <ele>26</ele>
        <time>2023-11-11T19:42:01Z</time>
      </trkpt>
      <trkpt lat="47.18212" lon="-1.56518">
        <ele>25</ele>
        <time>2023-11-11T19:42:36Z</time>
      </trkpt>
      <trkpt lat="47.18223" lon="-1.56496">
        <ele>25</ele>
        <time>2023-11-11T19:43:00Z</time>
      </trkpt>
      <trkpt lat="47.18253" lon="-1.5645">
        <ele>25</ele>
        <time>2023-11-11T19:43:58Z</time>
      </trkpt>
      <trkpt lat="47.18263" lon="-1.5644">
        <ele>25</ele>
        <time>2023-11-11T19:44:14Z</time>
      </trkpt>
      <trkpt lat="47.18256" lon="-1.56429">
        <ele>25</ele>
        <time>2023-11-11T19:44:28Z</time>
      </trkpt>
      <trkpt lat="47.1825" lon="-1.56409">
        <ele>25</ele>
        <time>2023-11-11T19:44:48Z</time>
      </trkpt>
      <trkpt lat="47.18232" lon="-1.56369">
        <ele>25</ele>
        <time>2023-11-11T19:45:31Z</time>
      </trkpt>
      <trkpt lat="47.18232" lon="-1.56359">
        <ele>25</ele>
        <time>2023-11-11T19:45:40Z</time>
      </trkpt>
      <trkpt lat="47.1824" lon="-1.56339">
        <ele>25</ele>
        <time>2023-11-11T19:46:01Z</time>
      </trkpt>
      <trkpt lat="47.18245" lon="-1.56332">
        <ele>25</ele>
        <time>2023-11-11T19:46:11Z</time>
      </trkpt>
      <trkpt lat="47.18264" lon="-1.56322">
        <ele>25</ele>
        <time>2023-11-11T19:46:38Z</time>
      </trkpt>
      <trkpt lat="47.18271" lon="-1.56321">
        <ele>25</ele>
        <time>2023-11-11T19:46:47Z</time>
      </trkpt>
      <trkpt lat="47.18289" lon="-1.56308">
        <ele>26</ele>
        <time>2023-11-11T19:47:14Z</time>
      </trkpt>
      <trkpt lat="47.18312" lon="-1.56296">
        <ele>26</ele>
        <time>2023-11-11T19:47:46Z</time>
      </trkpt>
      <trkpt lat="47.18325" lon="-1.56285">
        <ele>26</ele>
        <time>2023-11-11T19:48:06Z</time>
      </trkpt>
      <trkpt lat="47.18338" lon="-1.56281">
        <ele>26</ele>
        <time>2023-11-11T19:48:24Z</time>
      </trkpt>
      <trkpt lat="47.18343" lon="-1.56282">
        <ele>26</ele>
        <time>2023-11-11T19:48:31Z</time>
      </trkpt>
      <trkpt lat="47.18349" lon="-1.56263">
        <ele>26</ele>
        <time>2023-11-11T19:48:50Z</time>
      </trkpt>
      <trkpt lat="47.18339" lon="-1.56253">
        <ele>26</ele>
        <time>2023-11-11T19:49:06Z</time>
      </trkpt>
      <trkpt lat="47.18343" lon="-1.56225">
        <ele>26</ele>
        <time>2023-11-11T19:49:32Z</time>
      </trkpt>
      <trkpt lat="47.18345" lon="-1.56213">
        <ele>26</ele>
        <time>2023-11-11T19:49:43Z</time>
      </trkpt>
      <trkpt lat="47.18359" lon="-1.56192">
        <ele>26</ele>
        <time>2023-11-11T19:50:10Z</time>
      </trkpt>
      <trkpt lat="47.18365" lon="-1.56177">
        <ele>26</ele>
        <time>2023-11-11T19:50:25Z</time>
      </trkpt>
      <trkpt lat="47.18365" lon="-1.56168">
        <ele>26</ele>
        <time>2023-11-11T19:50:34Z</time>
      </trkpt>
      <trkpt lat="47.1837" lon="-1.5615">
        <ele>26</ele>
        <time>2023-11-11T19:50:51Z</time>
      </trkpt>
      <trkpt lat="47.18372" lon="-1.56132">
        <ele>27</ele>
        <time>2023-11-11T19:51:08Z</time>
      </trkpt>
      <trkpt lat="47.1837" lon="-1.56094">
        <ele>27</ele>
        <time>2023-11-11T19:51:42Z</time>
      </trkpt>
      <trkpt lat="47.18383" lon="-1.56035">
        <ele>27</ele>
        <time>2023-11-11T19:52:39Z</time>
      </trkpt>
      <trkpt lat="47.18423" lon="-1.55789">
        <ele>27</ele>
        <time>2023-11-11T19:56:28Z</time>
      </trkpt>
      <trkpt lat="47.18427" lon="-1.55781">
        <ele>27</ele>
        <time>2023-11-11T19:56:37Z</time>
      </trkpt>
      <trkpt lat="47.18443" lon="-1.55789">
        <ele>27</ele>
        <time>2023-11-11T19:57:00Z</time>
      </trkpt>
      <trkpt lat="47.18471" lon="-1.55798">
        <ele>25</ele>
        <time>2023-11-11T19:57:38Z</time>
      </trkpt>
      <trkpt lat="47.18473" lon="-1.55789">
        <ele>26</ele>
        <time>2023-11-11T19:57:46Z</time>
      </trkpt>
      <trkpt lat="47.18479" lon="-1.55742">
        <ele>26</ele>
        <time>2023-11-11T19:58:30Z</time>
      </trkpt>
      <trkpt lat="47.18478" lon="-1.55732">
        <ele>26</ele>
        <time>2023-11-11T19:58:39Z</time>
      </trkpt>
      <trkpt lat="47.18481" lon="-1.55725">
        <ele>26</ele>
        <time>2023-11-11T19:58:47Z</time>
      </trkpt>
      <trkpt lat="47.18497" lon="-1.55618">
        <ele>24</ele>
        <time>2023-11-11T20:00:26Z</time>
      </trkpt>
      <trkpt lat="47.185" lon="-1.5561">
        <ele>24</ele>
        <time>2023-11-11T20:00:34Z</time>
      </trkpt>
      <trkpt lat="47.18502" lon="-1.55588">
        <ele>23</ele>
        <time>2023-11-11T20:00:54Z</time>
      </trkpt>
      <trkpt lat="47.18498" lon="-1.55577">
        <ele>23</ele>
        <time>2023-11-11T20:01:06Z</time>
      </trkpt>
      <trkpt lat="47.18518" lon="-1.5554">
        <ele>23</ele>
        <time>2023-11-11T20:01:48Z</time>
      </trkpt>
      <trkpt lat="47.18537" lon="-1.55438">
        <ele>21</ele>
        <time>2023-11-11T20:03:24Z</time>
      </trkpt>
      <trkpt lat="47.1854" lon="-1.55377">
        <ele>21</ele>
        <time>2023-11-11T20:04:20Z</time>
      </trkpt>
      <trkpt lat="47.1853" lon="-1.55351">
        <ele>22</ele>
        <time>2023-11-11T20:04:47Z</time>
      </trkpt>
      <trkpt lat="47.1853" lon="-1.55342">
        <ele>22</ele>
        <time>2023-11-11T20:04:55Z</time>
      </trkpt>
      <trkpt lat="47.18541" lon="-1.55319">
        <ele>22</ele>
        <time>2023-11-11T20:05:21Z</time>
      </trkpt>
      <trkpt lat="47.18554" lon="-1.55312">
        <ele>23</ele>
        <time>2023-11-11T20:05:39Z</time>
      </trkpt>
      <trkpt lat="47.18575" lon="-1.55294">
        <ele>23</ele>
        <time>2023-11-11T20:06:12Z</time>
      </trkpt>
      <trkpt lat="47.18585" lon="-1.55292">
        <ele>23</ele>
        <time>2023-11-11T20:06:25Z</time>
      </trkpt>
      <trkpt lat="47.18589" lon="-1.55287">
        <ele>23</ele>
        <time>2023-11-11T20:06:32Z</time>
      </trkpt>
      <trkpt lat="47.18594" lon="-1.55289">
        <ele>22</ele>
        <time>2023-11-11T20:06:39Z</time>
      </trkpt>
      <trkpt lat="47.18583" lon="-1.55241">
        <ele>24</ele>
        <time>2023-11-11T20:07:25Z</time>
      </trkpt>
      <trkpt lat="47.18568" lon="-1.55155">
        <ele>22</ele>
        <time>2023-11-11T20:08:45Z</time>
      </trkpt>
      <trkpt lat="47.18574" lon="-1.55044">
        <ele>21</ele>
        <time>2023-11-11T20:10:26Z</time>
      </trkpt>
      <trkpt lat="47.18568" lon="-1.55015">
        <ele>22</ele>
        <time>2023-11-11T20:10:54Z</time>
      </trkpt>
      <trkpt lat="47.1856" lon="-1.54993">
        <ele>22</ele>
        <time>2023-11-11T20:11:16Z</time>
      </trkpt>
      <trkpt lat="47.18564" lon="-1.54972">
        <ele>22</ele>
        <time>2023-11-11T20:11:36Z</time>
      </trkpt>
      <trkpt lat="47.18563" lon="-1.54963">
        <ele>22</ele>
        <time>2023-11-11T20:11:45Z</time>
      </trkpt>
      <trkpt lat="47.18571" lon="-1.54939">
        <ele>22</ele>
        <time>2023-11-11T20:12:09Z</time>
      </trkpt>
      <trkpt lat="47.18581" lon="-1.54931">
        <ele>22</ele>
        <time>2023-11-11T20:12:24Z</time>
      </trkpt>
      <trkpt lat="47.186" lon="-1.54923">
        <ele>21</ele>
        <time>2023-11-11T20:12:50Z</time>
      </trkpt>
      <trkpt lat="47.18605" lon="-1.54913">
        <ele>21</ele>
        <time>2023-11-11T20:13:02Z</time>
      </trkpt>
      <trkpt lat="47.18597" lon="-1.5489">
        <ele>21</ele>
        <time>2023-11-11T20:13:25Z</time>
      </trkpt>
      <trkpt lat="47.186" lon="-1.54843">
        <ele>21</ele>
        <time>2023-11-11T20:14:08Z</time>
      </trkpt>
      <trkpt lat="47.18615" lon="-1.54837">
        <ele>20</ele>
        <time>2023-11-11T20:14:29Z</time>
      </trkpt>
      <trkpt lat="47.18624" lon="-1.54826">
        <ele>20</ele>
        <time>2023-11-11T20:14:44Z</time>
      </trkpt>
      <trkpt lat="47.18642" lon="-1.54821">
        <ele>19</ele>
        <time>2023-11-11T20:15:09Z</time>
      </trkpt>
      <trkpt lat="47.18647" lon="-1.54809">
        <ele>19</ele>
        <time>2023-11-11T20:15:21Z</time>
      </trkpt>
      <trkpt lat="47.1867" lon="-1.54788">
        <ele>19</ele>
        <time>2023-11-11T20:15:58Z</time>
      </trkpt>
      <trkpt lat="47.18681" lon="-1.54781">
        <ele>19</ele>
        <time>2023-11-11T20:16:14Z</time>
      </trkpt>
      <trkpt lat="47.187" lon="-1.54778">
        <ele>19</ele>
        <time>2023-11-11T20:16:39Z</time>
      </trkpt>
      <trkpt lat="47.18718" lon="-1.54781">
        <ele>18</ele>
        <time>2023-11-11T20:17:03Z</time>
      </trkpt>
      <trkpt lat="47.18725" lon="-1.54779">
        <ele>18</ele>
        <time>2023-11-11T20:17:13Z</time>
      </trkpt>
      <trkpt lat="47.18739" lon="-1.54781">
        <ele>18</ele>
        <time>2023-11-11T20:17:32Z</time>
      </trkpt>
      <trkpt lat="47.18762" lon="-1.54798">
        <ele>17</ele>
        <time>2023-11-11T20:18:06Z</time>
      </trkpt>
      <trkpt lat="47.18772" lon="-1.54799">
        <ele>17</ele>
        <time>2023-11-11T20:18:19Z</time>
      </trkpt>
      <trkpt lat="47.1879" lon="-1.54796">
        <ele>16</ele>
        <time>2023-11-11T20:18:43Z</time>
      </trkpt>
      <trkpt lat="47.18797" lon="-1.5479">
        <ele>16</ele>
        <time>2023-11-11T20:18:54Z</time>
      </trkpt>
      <trkpt lat="47.18796" lon="-1.54749">
        <ele>16</ele>
        <time>2023-11-11T20:19:31Z</time>
      </trkpt>
      <trkpt lat="47.18798" lon="-1.54724">
        <ele>16</ele>
        <time>2023-11-11T20:19:54Z</time>
      </trkpt>
      <trkpt lat="47.18794" lon="-1.54715">
        <ele>16</ele>
        <time>2023-11-11T20:20:04Z</time>
      </trkpt>
      <trkpt lat="47.18794" lon="-1.54707">
        <ele>16</ele>
        <time>2023-11-11T20:20:11Z</time>
      </trkpt>
      <trkpt lat="47.18777" lon="-1.54702">
        <ele>17</ele>
        <time>2023-11-11T20:20:34Z</time>
      </trkpt>
      <trkpt lat="47.18755" lon="-1.54701">
        <ele>17</ele>
        <time>2023-11-11T20:21:04Z</time>
      </trkpt>
      <trkpt lat="47.18741" lon="-1.54691">
        <ele>18</ele>
        <time>2023-11-11T20:21:25Z</time>
      </trkpt>
      <trkpt lat="47.18737" lon="-1.54684">
        <ele>18</ele>
        <time>2023-11-11T20:21:33Z</time>
      </trkpt>
      <trkpt lat="47.18713" lon="-1.54674">
        <ele>18</ele>
        <time>2023-11-11T20:22:06Z</time>
      </trkpt>
      <trkpt lat="47.1872" lon="-1.54645">
        <ele>18</ele>
        <time>2023-11-11T20:22:34Z</time>
      </trkpt>
      <trkpt lat="47.18722" lon="-1.54601">
        <ele>18</ele>
        <time>2023-11-11T20:23:14Z</time>
      </trkpt>
      <trkpt lat="47.18732" lon="-1.54539">
        <ele>18</ele>
        <time>2023-11-11T20:24:12Z</time>
      </trkpt>
      <trkpt lat="47.18729" lon="-1.54523">
        <ele>18</ele>
        <time>2023-11-11T20:24:27Z</time>
      </trkpt>
      <trkpt lat="47.18729" lon="-1.5449">
        <ele>18</ele>
        <time>2023-11-11T20:24:57Z</time>
      </trkpt>
      <trkpt lat="47.18736" lon="-1.54472">
        <ele>18</ele>
        <time>2023-11-11T20:25:16Z</time>
      </trkpt>
      <trkpt lat="47.18739" lon="-1.54456">
        <ele>18</ele>
        <time>2023-11-11T20:25:31Z</time>
      </trkpt>
      <trkpt lat="47.18748" lon="-1.5444">
        <ele>18</ele>
        <time>2023-11-11T20:25:49Z</time>
      </trkpt>
      <trkpt lat="47.18755" lon="-1.54433">
        <ele>18</ele>
        <time>2023-11-11T20:26:01Z</time>
      </trkpt>
      <trkpt lat="47.18758" lon="-1.54425">
        <ele>18</ele>
        <time>2023-11-11T20:26:09Z</time>
      </trkpt>
      <trkpt lat="47.18774" lon="-1.54406">
        <ele>18</ele>
        <time>2023-11-11T20:26:36Z</time>
      </trkpt>
      <trkpt lat="47.1877" lon="-1.544">
        <ele>18</ele>
        <time>2023-11-11T20:26:44Z</time>
      </trkpt>
      <trkpt lat="47.18771" lon="-1.5439">
        <ele>18</ele>
        <time>2023-11-11T20:26:53Z</time>
      </trkpt>
      <trkpt lat="47.18769" lon="-1.54384">
        <ele>18</ele>
        <time>2023-11-11T20:26:59Z</time>
      </trkpt>
      <trkpt lat="47.1873" lon="-1.54341">
        <ele>19</ele>
        <time>2023-11-11T20:28:04Z</time>
      </trkpt>
      <trkpt lat="47.18713" lon="-1.54314">
        <ele>20</ele>
        <time>2023-11-11T20:28:38Z</time>
      </trkpt>
      <trkpt lat="47.18693" lon="-1.54291">
        <ele>21</ele>
        <time>2023-11-11T20:29:12Z</time>
      </trkpt>
      <trkpt lat="47.18668" lon="-1.54252">
        <ele>22</ele>
        <time>2023-11-11T20:30:00Z</time>
      </trkpt>
      <trkpt lat="47.18659" lon="-1.54244">
        <ele>22</ele>
        <time>2023-11-11T20:30:14Z</time>
      </trkpt>
      <trkpt lat="47.1864" lon="-1.54217">
        <ele>22</ele>
        <time>2023-11-11T20:30:50Z</time>
      </trkpt>
      <trkpt lat="47.18606" lon="-1.54181">
        <ele>23</ele>
        <time>2023-11-11T20:31:45Z</time>
      </trkpt>
      <trkpt lat="47.18593" lon="-1.54171">
        <ele>23</ele>
        <time>2023-11-11T20:32:05Z</time>
      </trkpt>
      <trkpt lat="47.18583" lon="-1.54158">
        <ele>23</ele>
        <time>2023-11-11T20:32:23Z</time>
      </trkpt>
      <trkpt lat="47.18576" lon="-1.54155">
        <ele>23</ele>
        <time>2023-11-11T20:32:33Z</time>
      </trkpt>
      <trkpt lat="47.1855" lon="-1.54134">
        <ele>23</ele>
        <time>2023-11-11T20:33:12Z</time>
      </trkpt>
      <trkpt lat="47.18536" lon="-1.54116">
        <ele>23</ele>
        <time>2023-11-11T20:33:37Z</time>
      </trkpt>
      <trkpt lat="47.18516" lon="-1.54099">
        <ele>23</ele>
        <time>2023-11-11T20:34:08Z</time>
      </trkpt>
      <trkpt lat="47.18516" lon="-1.54093">
        <ele>23</ele>
        <time>2023-11-11T20:34:13Z</time>
      </trkpt>
      <trkpt lat="47.1855" lon="-1.54065">
        <ele>22</ele>
        <time>2023-11-11T20:35:05Z</time>
      </trkpt>
      <trkpt lat="47.1856" lon="-1.54054">
        <ele>22</ele>
        <time>2023-11-11T20:35:22Z</time>
      </trkpt>
      <trkpt lat="47.18569" lon="-1.54038">
        <ele>21</ele>
        <time>2023-11-11T20:35:41Z</time>
      </trkpt>
      <trkpt lat="47.18589" lon="-1.54016">
        <ele>21</ele>
        <time>2023-11-11T20:36:14Z</time>
      </trkpt>
      <trkpt lat="47.18598" lon="-1.5401">
        <ele>21</ele>
        <time>2023-11-11T20:36:27Z</time>
      </trkpt>
      <trkpt lat="47.18613" lon="-1.5399">
        <ele>20</ele>
        <time>2023-11-11T20:36:54Z</time>
      </trkpt>
      <trkpt lat="47.1864" lon="-1.53962">
        <ele>20</ele>
        <time>2023-11-11T20:37:38Z</time>
      </trkpt>
      <trkpt lat="47.18681" lon="-1.53911">
        <ele>19</ele>
        <time>2023-11-11T20:38:50Z</time>
      </trkpt>
      <trkpt lat="47.18699" lon="-1.53882">
        <ele>16</ele>
        <time>2023-11-11T20:39:26Z</time>
      </trkpt>
      <trkpt lat="47.18709" lon="-1.53874">
        <ele>15</ele>
        <time>2023-11-11T20:39:41Z</time>
      </trkpt>
      <trkpt lat="47.18713" lon="-1.53868">
        <ele>15</ele>
        <time>2023-11-11T20:39:48Z</time>
      </trkpt>
      <trkpt lat="47.18709" lon="-1.53845">
        <ele>14</ele>
        <time>2023-11-11T20:40:10Z</time>
      </trkpt>
      <trkpt lat="47.18712" lon="-1.53838">
        <ele>13</ele>
        <time>2023-11-11T20:40:17Z</time>
      </trkpt>
      <trkpt lat="47.18729" lon="-1.53812">
        <ele>12</ele>
        <time>2023-11-11T20:40:50Z</time>
      </trkpt>
      <trkpt lat="47.18742" lon="-1.53783">
        <ele>10</ele>
        <time>2023-11-11T20:41:22Z</time>
      </trkpt>
      <trkpt lat="47.18758" lon="-1.53757">
        <ele>9</ele>
        <time>2023-11-11T20:41:53Z</time>
      </trkpt>
      <trkpt lat="47.1877" lon="-1.53745">
        <ele>8</ele>
        <time>2023-11-11T20:42:13Z</time>
      </trkpt>
      <trkpt lat="47.18777" lon="-1.53726">
        <ele>8</ele>
        <time>2023-11-11T20:42:32Z</time>
      </trkpt>
      <trkpt lat="47.18791" lon="-1.53741">
        <ele>8</ele>
        <time>2023-11-11T20:42:56Z</time>
      </trkpt>
      <trkpt lat="47.18817" lon="-1.53778">
        <ele>8</ele>
        <time>2023-11-11T20:43:44Z</time>
      </trkpt>
      <trkpt lat="47.18827" lon="-1.53799">
        <ele>7</ele>
        <time>2023-11-11T20:44:07Z</time>
      </trkpt>
      <trkpt lat="47.18848" lon="-1.53823">
        <ele>6</ele>
        <time>2023-11-11T20:44:43Z</time>
      </trkpt>
      <trkpt lat="47.18851" lon="-1.5383">
        <ele>6</ele>
        <time>2023-11-11T20:44:50Z</time>
      </trkpt>
      <trkpt lat="47.1886" lon="-1.5384">
        <ele>6</ele>
        <time>2023-11-11T20:45:05Z</time>
      </trkpt>
      <trkpt lat="47.18863" lon="-1.53849">
        <ele>7</ele>
        <time>2023-11-11T20:45:14Z</time>
      </trkpt>
      <trkpt lat="47.18879" lon="-1.53867">
        <ele>7</ele>
        <time>2023-11-11T20:45:41Z</time>
      </trkpt>
      <trkpt lat="47.18884" lon="-1.53878">
        <ele>8</ele>
        <time>2023-11-11T20:45:53Z</time>
      </trkpt>
      <trkpt lat="47.18907" lon="-1.53911">
        <ele>8</ele>
        <time>2023-11-11T20:46:36Z</time>
      </trkpt>
      <trkpt lat="47.18922" lon="-1.53907">
        <ele>7</ele>
        <time>2023-11-11T20:46:56Z</time>
      </trkpt>
      <trkpt lat="47.18937" lon="-1.53938">
        <ele>8</ele>
        <time>2023-11-11T20:47:31Z</time>
      </trkpt>
      <trkpt lat="47.18947" lon="-1.53952">
        <ele>7</ele>
        <time>2023-11-11T20:47:49Z</time>
      </trkpt>
      <trkpt lat="47.18953" lon="-1.53968">
        <ele>7</ele>
        <time>2023-11-11T20:48:06Z</time>
      </trkpt>
      <trkpt lat="47.1897" lon="-1.53988">
        <ele>7</ele>
        <time>2023-11-11T20:48:35Z</time>
      </trkpt>
      <trkpt lat="47.18987" lon="-1.54024">
        <ele>7</ele>
        <time>2023-11-11T20:49:15Z</time>
      </trkpt>
      <trkpt lat="47.19013" lon="-1.54066">
        <ele>6</ele>
        <time>2023-11-11T20:50:06Z</time>
      </trkpt>
      <trkpt lat="47.19045" lon="-1.54095">
        <ele>6</ele>
        <time>2023-11-11T20:50:56Z</time>
      </trkpt>
      <trkpt lat="47.19059" lon="-1.54129">
        <ele>6</ele>
        <time>2023-11-11T20:51:32Z</time>
      </trkpt>
      <trkpt lat="47.19073" lon="-1.54151">
        <ele>6</ele>
        <time>2023-11-11T20:52:00Z</time>
      </trkpt>
      <trkpt lat="47.19089" lon="-1.54185">
        <ele>6</ele>
        <time>2023-11-11T20:52:37Z</time>
      </trkpt>
      <trkpt lat="47.19099" lon="-1.54222">
        <ele>7</ele>
        <time>2023-11-11T20:53:13Z</time>
      </trkpt>
      <trkpt lat="47.19121" lon="-1.54272">
        <ele>7</ele>
        <time>2023-11-11T20:54:07Z</time>
      </trkpt>
      <trkpt lat="47.19127" lon="-1.54297">
        <ele>7</ele>
        <time>2023-11-11T20:54:31Z</time>
      </trkpt>
      <trkpt lat="47.19155" lon="-1.54351">
        <ele>7</ele>
        <time>2023-11-11T20:55:33Z</time>
      </trkpt>
      <trkpt lat="47.19168" lon="-1.54391">
        <ele>7</ele>
        <time>2023-11-11T20:56:13Z</time>
      </trkpt>
      <trkpt lat="47.19169" lon="-1.54401">
        <ele>7</ele>
        <time>2023-11-11T20:56:22Z</time>
      </trkpt>
      <trkpt lat="47.19162" lon="-1.54404">
        <ele>7</ele>
        <time>2023-11-11T20:56:32Z</time>
      </trkpt>
      <trkpt lat="47.19144" lon="-1.54427">
        <ele>9</ele>
        <time>2023-11-11T20:57:04Z</time>
      </trkpt>
      <trkpt lat="47.19154" lon="-1.54504">
        <ele>10</ele>
        <time>2023-11-11T20:58:15Z</time>
      </trkpt>
      <trkpt lat="47.19155" lon="-1.54553">
        <ele>10</ele>
        <time>2023-11-11T20:58:59Z</time>
      </trkpt>
      <trkpt lat="47.19168" lon="-1.54615">
        <ele>10</ele>
        <time>2023-11-11T20:59:58Z</time>
      </trkpt>
      <trkpt lat="47.19162" lon="-1.54639">
        <ele>11</ele>
        <time>2023-11-11T21:00:21Z</time>
      </trkpt>
      <trkpt lat="47.19146" lon="-1.54645">
        <ele>11</ele>
        <time>2023-11-11T21:00:43Z</time>
      </trkpt>
      <trkpt lat="47.19117" lon="-1.54662">
        <ele>12</ele>
        <time>2023-11-11T21:01:25Z</time>
      </trkpt>
      <trkpt lat="47.19099" lon="-1.54677">
        <ele>12</ele>
        <time>2023-11-11T21:01:53Z</time>
      </trkpt>
      <trkpt lat="47.19084" lon="-1.54678">
        <ele>13</ele>
        <time>2023-11-11T21:02:13Z</time>
      </trkpt>
      <trkpt lat="47.19065" lon="-1.54692">
        <ele>13</ele>
        <time>2023-11-11T21:02:41Z</time>
      </trkpt>
      <trkpt lat="47.19055" lon="-1.54708">
        <ele>14</ele>
        <time>2023-11-11T21:03:01Z</time>
      </trkpt>
      <trkpt lat="47.19038" lon="-1.54717">
        <ele>13</ele>
        <time>2023-11-11T21:03:25Z</time>
      </trkpt>
      <trkpt lat="47.19034" lon="-1.54724">
        <ele>13</ele>
        <time>2023-11-11T21:03:33Z</time>
      </trkpt>
      <trkpt lat="47.19031" lon="-1.54755">
        <ele>14</ele>
        <time>2023-11-11T21:04:02Z</time>
      </trkpt>
      <trkpt lat="47.19035" lon="-1.54762">
        <ele>14</ele>
        <time>2023-11-11T21:04:10Z</time>
      </trkpt>
      <trkpt lat="47.19025" lon="-1.54788">
        <ele>14</ele>
        <time>2023-11-11T21:04:37Z</time>
      </trkpt>
      <trkpt lat="47.19025" lon="-1.54797">
        <ele>14</ele>
        <time>2023-11-11T21:04:45Z</time>
      </trkpt>
      <trkpt lat="47.19028" lon="-1.54799">
        <ele>14</ele>
        <time>2023-11-11T21:04:50Z</time>
      </trkpt>
      <trkpt lat="47.19021" lon="-1.54823">
        <ele>13</ele>
        <time>2023-11-11T21:05:13Z</time>
      </trkpt>
      <trkpt lat="47.19018" lon="-1.54853">
        <ele>14</ele>
        <time>2023-11-11T21:05:41Z</time>
      </trkpt>
      <trkpt lat="47.19013" lon="-1.54874">
        <ele>14</ele>
        <time>2023-11-11T21:06:01Z</time>
      </trkpt>
      <trkpt lat="47.19004" lon="-1.54895">
        <ele>15</ele>
        <time>2023-11-11T21:06:23Z</time>
      </trkpt>
      <trkpt lat="47.18992" lon="-1.54913">
        <ele>15</ele>
        <time>2023-11-11T21:06:46Z</time>
      </trkpt>
      <trkpt lat="47.18985" lon="-1.54936">
        <ele>15</ele>
        <time>2023-11-11T21:07:09Z</time>
      </trkpt>
      <trkpt lat="47.18942" lon="-1.54999">
        <ele>16</ele>
        <time>2023-11-11T21:08:30Z</time>
      </trkpt>
      <trkpt lat="47.18927" lon="-1.55032">
        <ele>15</ele>
        <time>2023-11-11T21:09:06Z</time>
      </trkpt>
      <trkpt lat="47.18913" lon="-1.55034">
        <ele>16</ele>
        <time>2023-11-11T21:09:25Z</time>
      </trkpt>
      <trkpt lat="47.18873" lon="-1.55087">
        <ele>16</ele>
        <time>2023-11-11T21:10:37Z</time>
      </trkpt>
      <trkpt lat="47.18878" lon="-1.55101">
        <ele>16</ele>
        <time>2023-11-11T21:10:51Z</time>
      </trkpt>
      <trkpt lat="47.18882" lon="-1.55102">
        <ele>16</ele>
        <time>2023-11-11T21:10:56Z</time>
      </trkpt>
      <trkpt lat="47.18888" lon="-1.55133">
        <ele>15</ele>
        <time>2023-11-11T21:11:26Z</time>
      </trkpt>
      <trkpt lat="47.18899" lon="-1.55154">
        <ele>13</ele>
        <time>2023-11-11T21:11:50Z</time>
      </trkpt>
      <trkpt lat="47.1892" lon="-1.55185">
        <ele>12</ele>
        <time>2023-11-11T21:12:29Z</time>
      </trkpt>
      <trkpt lat="47.18927" lon="-1.55185">
        <ele>12</ele>
        <time>2023-11-11T21:12:39Z</time>
      </trkpt>
      <trkpt lat="47.18935" lon="-1.55193">
        <ele>12</ele>
        <time>2023-11-11T21:12:52Z</time>
      </trkpt>
      <trkpt lat="47.18937" lon="-1.55205">
        <ele>12</ele>
        <time>2023-11-11T21:13:03Z</time>
      </trkpt>
      <trkpt lat="47.18941" lon="-1.55211">
        <ele>12</ele>
        <time>2023-11-11T21:13:10Z</time>
      </trkpt>
      <trkpt lat="47.18971" lon="-1.55206">
        <ele>11</ele>
        <time>2023-11-11T21:13:51Z</time>
      </trkpt>
      <trkpt lat="47.18996" lon="-1.55212">
        <ele>11</ele>
        <time>2023-11-11T21:14:25Z</time>
      </trkpt>
      <trkpt lat="47.19021" lon="-1.55224">
        <ele>10</ele>
        <time>2023-11-11T21:15:00Z</time>
      </trkpt>
      <trkpt lat="47.19042" lon="-1.55244">
        <ele>10</ele>
        <time>2023-11-11T21:15:33Z</time>
      </trkpt>
      <trkpt lat="47.19061" lon="-1.55276">
        <ele>10</ele>
        <time>2023-11-11T21:16:12Z</time>
      </trkpt>
      <trkpt lat="47.1907" lon="-1.55305">
        <ele>9</ele>
        <time>2023-11-11T21:16:41Z</time>
      </trkpt>
      <trkpt lat="47.19075" lon="-1.5531">
        <ele>9</ele>
        <time>2023-11-11T21:16:49Z</time>
      </trkpt>
      <trkpt lat="47.19083" lon="-1.55329">
        <ele>8</ele>
        <time>2023-11-11T21:17:09Z</time>
      </trkpt>
      <trkpt lat="47.19101" lon="-1.55358">
        <ele>8</ele>
        <time>2023-11-11T21:17:44Z</time>
      </trkpt>
      <trkpt lat="47.19117" lon="-1.55376">
        <ele>7</ele>
        <time>2023-11-11T21:18:11Z</time>
      </trkpt>
      <trkpt lat="47.1913" lon="-1.55382">
        <ele>7</ele>
        <time>2023-11-11T21:18:30Z</time>
      </trkpt>
      <trkpt lat="47.19141" lon="-1.55393">
        <ele>7</ele>
        <time>2023-11-11T21:18:47Z</time>
      </trkpt>
      <trkpt lat="47.19156" lon="-1.55404">
        <ele>7</ele>
        <time>2023-11-11T21:19:10Z</time>
      </trkpt>
      <trkpt lat="47.19161" lon="-1.55404">
        <ele>7</ele>
        <time>2023-11-11T21:19:16Z</time>
      </trkpt>
      <trkpt lat="47.19166" lon="-1.55409">
        <ele>7</ele>
        <time>2023-11-11T21:19:24Z</time>
      </trkpt>
      <trkpt lat="47.19172" lon="-1.55448">
        <ele>6</ele>
        <time>2023-11-11T21:20:01Z</time>
      </trkpt>
      <trkpt lat="47.19199" lon="-1.5546">
        <ele>6</ele>
        <time>2023-11-11T21:20:38Z</time>
      </trkpt>
      <trkpt lat="47.19205" lon="-1.55486">
        <ele>6</ele>
        <time>2023-11-11T21:21:03Z</time>
      </trkpt>
      <trkpt lat="47.19208" lon="-1.55505">
        <ele>6</ele>
        <time>2023-11-11T21:21:21Z</time>
      </trkpt>
      <trkpt lat="47.19207" lon="-1.55533">
        <ele>6</ele>
        <time>2023-11-11T21:21:46Z</time>
      </trkpt>
      <trkpt lat="47.19209" lon="-1.55542">
        <ele>6</ele>
        <time>2023-11-11T21:21:55Z</time>
      </trkpt>
      <trkpt lat="47.19203" lon="-1.55577">
        <ele>6</ele>
        <time>2023-11-11T21:22:28Z</time>
      </trkpt>
      <trkpt lat="47.19202" lon="-1.55605">
        <ele>6</ele>
        <time>2023-11-11T21:22:53Z</time>
      </trkpt>
      <trkpt lat="47.19199" lon="-1.55621">
        <ele>6</ele>
        <time>2023-11-11T21:23:08Z</time>
      </trkpt>
      <trkpt lat="47.19202" lon="-1.5564">
        <ele>7</ele>
        <time>2023-11-11T21:23:26Z</time>
      </trkpt>
      <trkpt lat="47.19201" lon="-1.55715">
        <ele>8</ele>
        <time>2023-11-11T21:24:34Z</time>
      </trkpt>
      <trkpt lat="47.19209" lon="-1.55739">
        <ele>8</ele>
        <time>2023-11-11T21:24:58Z</time>
      </trkpt>
      <trkpt lat="47.19205" lon="-1.55802">
        <ele>9</ele>
        <time>2023-11-11T21:25:55Z</time>
      </trkpt>
      <trkpt lat="47.19211" lon="-1.55876">
        <ele>9</ele>
        <time>2023-11-11T21:27:03Z</time>
      </trkpt>
      <trkpt lat="47.19219" lon="-1.55931">
        <ele>10</ele>
        <time>2023-11-11T21:27:54Z</time>
      </trkpt>
      <trkpt lat="47.19219" lon="-1.5596">
        <ele>10</ele>
        <time>2023-11-11T21:28:20Z</time>
      </trkpt>
      <trkpt lat="47.19222" lon="-1.55969">
        <ele>10</ele>
        <time>2023-11-11T21:28:29Z</time>
      </trkpt>
      <trkpt lat="47.19225" lon="-1.56024">
        <ele>10</ele>
        <time>2023-11-11T21:29:19Z</time>
      </trkpt>
      <trkpt lat="47.19228" lon="-1.56042">
        <ele>10</ele>
        <time>2023-11-11T21:29:36Z</time>
      </trkpt>
      <trkpt lat="47.19233" lon="-1.56147">
        <ele>9</ele>
        <time>2023-11-11T21:31:12Z</time>
      </trkpt>
      <trkpt lat="47.19228" lon="-1.56191">
        <ele>8</ele>
        <time>2023-11-11T21:31:52Z</time>
      </trkpt>
      <trkpt lat="47.19219" lon="-1.562">
        <ele>8</ele>
        <time>2023-11-11T21:32:07Z</time>
      </trkpt>
      <trkpt lat="47.19214" lon="-1.56216">
        <ele>8</ele>
        <time>2023-11-11T21:32:23Z</time>
      </trkpt>
      <trkpt lat="47.1921" lon="-1.56265">
        <ele>8</ele>
        <time>2023-11-11T21:33:07Z</time>
      </trkpt>
      <trkpt lat="47.19212" lon="-1.56331">
        <ele>8</ele>
        <time>2023-11-11T21:34:07Z</time>
      </trkpt>
      <trkpt lat="47.19217" lon="-1.56369">
        <ele>8</ele>
        <time>2023-11-11T21:34:42Z</time>
      </trkpt>
      <trkpt lat="47.19204" lon="-1.56385">
        <ele>8</ele>
        <time>2023-11-11T21:35:05Z</time>
      </trkpt>
      <trkpt lat="47.19185" lon="-1.56388">
        <ele>9</ele>
        <time>2023-11-11T21:35:31Z</time>
      </trkpt>
      <trkpt lat="47.19171" lon="-1.56386">
        <ele>9</ele>
        <time>2023-11-11T21:35:49Z</time>
      </trkpt>
      <trkpt lat="47.19159" lon="-1.56379">
        <ele>9</ele>
        <time>2023-11-11T21:36:07Z</time>
      </trkpt>
      <trkpt lat="47.19149" lon="-1.56381">
        <ele>9</ele>
        <time>2023-11-11T21:36:20Z</time>
      </trkpt>
      <trkpt lat="47.1914" lon="-1.56424">
        <ele>9</ele>
        <time>2023-11-11T21:37:01Z</time>
      </trkpt>
      <trkpt lat="47.19121" lon="-1.56548">
        <ele>11</ele>
        <time>2023-11-11T21:38:56Z</time>
      </trkpt>
      <trkpt lat="47.19086" lon="-1.56543">
        <ele>13</ele>
        <time>2023-11-11T21:39:43Z</time>
      </trkpt>
      <trkpt lat="47.19086" lon="-1.56551">
        <ele>13</ele>
        <time>2023-11-11T21:39:50Z</time>
      </trkpt>
      <trkpt lat="47.1909" lon="-1.56592">
        <ele>13</ele>
        <time>2023-11-11T21:40:28Z</time>
      </trkpt>
      <trkpt lat="47.19096" lon="-1.56611">
        <ele>13</ele>
        <time>2023-11-11T21:40:47Z</time>
      </trkpt>
      <trkpt lat="47.19148" lon="-1.56627">
        <ele>10</ele>
        <time>2023-11-11T21:41:58Z</time>
      </trkpt>
      <trkpt lat="47.19154" lon="-1.56631">
        <ele>9</ele>
        <time>2023-11-11T21:42:06Z</time>
      </trkpt>
      <trkpt lat="47.19142" lon="-1.56746">
        <ele>10</ele>
        <time>2023-11-11T21:43:52Z</time>
      </trkpt>
      <trkpt lat="47.19144" lon="-1.56879">
        <ele>10</ele>
        <time>2023-11-11T21:45:53Z</time>
      </trkpt>
      <trkpt lat="47.19141" lon="-1.56887">
        <ele>10</ele>
        <time>2023-11-11T21:46:01Z</time>
      </trkpt>
      <trkpt lat="47.1914" lon="-1.56902">
        <ele>10</ele>
        <time>2023-11-11T21:46:15Z</time>
      </trkpt>
      <trkpt lat="47.19157" lon="-1.56905">
        <ele>9</ele>
        <time>2023-11-11T21:46:37Z</time>
      </trkpt>
      <trkpt lat="47.19161" lon="-1.56909">
        <ele>8</ele>
        <time>2023-11-11T21:46:44Z</time>
      </trkpt>
      <trkpt lat="47.1916" lon="-1.56955">
        <ele>9</ele>
        <time>2023-11-11T21:47:26Z</time>
      </trkpt>
      <trkpt lat="47.19166" lon="-1.56959">
        <ele>8</ele>
        <time>2023-11-11T21:47:34Z</time>
      </trkpt>
      <trkpt lat="47.19187" lon="-1.56959">
        <ele>7</ele>
        <time>2023-11-11T21:48:02Z</time>
      </trkpt>
      <trkpt lat="47.1919" lon="-1.56963">
        <ele>7</ele>
        <time>2023-11-11T21:48:08Z</time>
      </trkpt>
      <trkpt lat="47.19188" lon="-1.56978">
        <ele>7</ele>
        <time>2023-11-11T21:48:22Z</time>
      </trkpt>
      <trkpt lat="47.19192" lon="-1.56984">
        <ele>7</ele>
        <time>2023-11-11T21:48:29Z</time>
      </trkpt>
      <trkpt lat="47.19204" lon="-1.56985">
        <ele>7</ele>
        <time>2023-11-11T21:48:45Z</time>
      </trkpt>
      <trkpt lat="47.19217" lon="-1.56993">
        <ele>6</ele>
        <time>2023-11-11T21:49:04Z</time>
      </trkpt>
      <trkpt lat="47.19229" lon="-1.57005">
        <ele>6</ele>
        <time>2023-11-11T21:49:24Z</time>
      </trkpt>
      <trkpt lat="47.19238" lon="-1.57019">
        <ele>5</ele>
        <time>2023-11-11T21:49:41Z</time>
      </trkpt>
      <trkpt lat="47.19244" lon="-1.57031">
        <ele>5</ele>
        <time>2023-11-11T21:49:55Z</time>
      </trkpt>
      <trkpt lat="47.19242" lon="-1.57044">
        <ele>5</ele>
        <time>2023-11-11T21:50:07Z</time>
      </trkpt>
      <trkpt lat="47.1925" lon="-1.57074">
        <ele>5</ele>
        <time>2023-11-11T21:50:36Z</time>
      </trkpt>
      <trkpt lat="47.19251" lon="-1.57089">
        <ele>5</ele>
        <time>2023-11-11T21:50:49Z</time>
      </trkpt>
      <trkpt lat="47.19243" lon="-1.57127">
        <ele>7</ele>
        <time>2023-11-11T21:51:26Z</time>
      </trkpt>
      <trkpt lat="47.19231" lon="-1.5715">
        <ele>8</ele>
        <time>2023-11-11T21:51:52Z</time>
      </trkpt>
      <trkpt lat="47.19231" lon="-1.57158">
        <ele>8</ele>
        <time>2023-11-11T21:51:59Z</time>
      </trkpt>
      <trkpt lat="47.19238" lon="-1.57172">
        <ele>8</ele>
        <time>2023-11-11T21:52:15Z</time>
      </trkpt>
      <trkpt lat="47.19238" lon="-1.5718">
        <ele>8</ele>
        <time>2023-11-11T21:52:22Z</time>
      </trkpt>
      <trkpt lat="47.19235" lon="-1.57187">
        <ele>8</ele>
        <time>2023-11-11T21:52:30Z</time>
      </trkpt>
      <trkpt lat="47.19234" lon="-1.57235">
        <ele>8</ele>
        <time>2023-11-11T21:53:13Z</time>
      </trkpt>
      <trkpt lat="47.19231" lon="-1.57243">
        <ele>8</ele>
        <time>2023-11-11T21:53:21Z</time>
      </trkpt>
      <trkpt lat="47.19224" lon="-1.57253">
        <ele>8</ele>
        <time>2023-11-11T21:53:34Z</time>
      </trkpt>
      <trkpt lat="47.19216" lon="-1.57257">
        <ele>8</ele>
        <time>2023-11-11T21:53:46Z</time>
      </trkpt>
      <trkpt lat="47.19203" lon="-1.5726">
        <ele>8</ele>
        <time>2023-11-11T21:54:03Z</time>
      </trkpt>
      <trkpt lat="47.19195" lon="-1.57258">
        <ele>9</ele>
        <time>2023-11-11T21:54:14Z</time>
      </trkpt>
      <trkpt lat="47.19187" lon="-1.57261">
        <ele>9</ele>
        <time>2023-11-11T21:54:25Z</time>
      </trkpt>
      <trkpt lat="47.19167" lon="-1.57255">
        <ele>9</ele>
        <time>2023-11-11T21:54:52Z</time>
      </trkpt>
      <trkpt lat="47.19143" lon="-1.5724">
        <ele>9</ele>
        <time>2023-11-11T21:55:27Z</time>
      </trkpt>
      <trkpt lat="47.19138" lon="-1.57244">
        <ele>9</ele>
        <time>2023-11-11T21:55:35Z</time>
      </trkpt>
      <trkpt lat="47.19119" lon="-1.57311">
        <ele>8</ele>
        <time>2023-11-11T21:56:41Z</time>
      </trkpt>
      <trkpt lat="47.19112" lon="-1.57374">
        <ele>7</ele>
        <time>2023-11-11T21:57:39Z</time>
      </trkpt>
      <trkpt lat="47.19095" lon="-1.57407">
        <ele>6</ele>
        <time>2023-11-11T21:58:16Z</time>
      </trkpt>
      <trkpt lat="47.19085" lon="-1.57442">
        <ele>6</ele>
        <time>2023-11-11T21:58:50Z</time>
      </trkpt>
      <trkpt lat="47.19063" lon="-1.57483">
        <ele>8</ele>
        <time>2023-11-11T21:59:38Z</time>
      </trkpt>
      <trkpt lat="47.19054" lon="-1.57516">
        <ele>8</ele>
        <time>2023-11-11T22:00:10Z</time>
      </trkpt>
      <trkpt lat="47.19046" lon="-1.57534">
        <ele>8</ele>
        <time>2023-11-11T22:00:30Z</time>
      </trkpt>
      <trkpt lat="47.19025" lon="-1.57564">
        <ele>8</ele>
        <time>2023-11-11T22:01:09Z</time>
      </trkpt>
      <trkpt lat="47.19023" lon="-1.57583">
        <ele>7</ele>
        <time>2023-11-11T22:01:26Z</time>
      </trkpt>
      <trkpt lat="47.19017" lon="-1.57599">
        <ele>7</ele>
        <time>2023-11-11T22:01:43Z</time>
      </trkpt>
      <trkpt lat="47.19011" lon="-1.576">
        <ele>7</ele>
        <time>2023-11-11T22:01:51Z</time>
      </trkpt>
      <trkpt lat="47.18973" lon="-1.57587">
        <ele>9</ele>
        <time>2023-11-11T22:02:43Z</time>
      </trkpt>
      <trkpt lat="47.18939" lon="-1.57581">
        <ele>11</ele>
        <time>2023-11-11T22:03:29Z</time>
      </trkpt>
      <trkpt lat="47.18901" lon="-1.5756">
        <ele>12</ele>
        <time>2023-11-11T22:04:23Z</time>
      </trkpt>
      <trkpt lat="47.18841" lon="-1.57518">
        <ele>9</ele>
        <time>2023-11-11T22:05:51Z</time>
      </trkpt>
      <trkpt lat="47.18828" lon="-1.57513">
        <ele>8</ele>
        <time>2023-11-11T22:06:09Z</time>
      </trkpt>
      <trkpt lat="47.18822" lon="-1.57508">
        <ele>8</ele>
        <time>2023-11-11T22:06:18Z</time>
      </trkpt>
      <trkpt lat="47.18815" lon="-1.57507">
        <ele>8</ele>
        <time>2023-11-11T22:06:28Z</time>
      </trkpt>
      <trkpt lat="47.18791" lon="-1.57492">
        <ele>8</ele>
        <time>2023-11-11T22:07:03Z</time>
      </trkpt>
      <trkpt lat="47.18772" lon="-1.57473">
        <ele>8</ele>
        <time>2023-11-11T22:07:33Z</time>
      </trkpt>
      <trkpt lat="47.1876" lon="-1.57447">
        <ele>9</ele>
        <time>2023-11-11T22:08:02Z</time>
      </trkpt>
      <trkpt lat="47.18756" lon="-1.57433">
        <ele>9</ele>
        <time>2023-11-11T22:08:16Z</time>
      </trkpt>
      <trkpt lat="47.18768" lon="-1.57424">
        <ele>9</ele>
        <time>2023-11-11T22:08:34Z</time>
      </trkpt>
    </trkseg>
  </trk>
</gpx>